BTK6272 WIII-WAMM
Flight info
| Callsign | BTK6272 |
|---|---|
| Flight time | 2h 51m |
| Altitude | 35000 |
| Route | EGUKO T9 ARITO |
| Aircraft | A320/M-SDE3FGHIRWY/LB1 |
Departure
| Time | 2026-04-22 08:19 |
|---|---|
| Airport | Soekarno-Hatta International Airport (WIII) |
Arrival
| Time | 2026-04-22 11:10 |
|---|---|
| Airport | Sam Ratulangi International Airport (WAMM) |
| Time | Latitude | Longitude | Altitude | Speed | Heading |
|---|---|---|---|---|---|
| 2026-04-22 07:58 | -6.11984 | 106.65583 | 38 ft | 0 kts | 217° |
| 2026-04-22 08:05 | -6.11980 | 106.65586 | 37 ft | 2 kts | 217° |
| 2026-04-22 08:05 | -6.11963 | 106.65598 | 38 ft | 3 kts | 213° |
| 2026-04-22 08:06 | -6.11946 | 106.65608 | 34 ft | 3 kts | 204° |
| 2026-04-22 08:06 | -6.11928 | 106.65614 | 35 ft | 3 kts | 180° |
| 2026-04-22 08:06 | -6.11914 | 106.65613 | 37 ft | 2 kts | 121° |
| 2026-04-22 08:06 | -6.11911 | 106.65608 | 37 ft | 2 kts | 102° |
| 2026-04-22 08:09 | -6.11914 | 106.65630 | 38 ft | 5 kts | 81° |
| 2026-04-22 08:09 | -6.11871 | 106.65671 | 38 ft | 11 kts | 20° |
| 2026-04-22 08:09 | -6.11804 | 106.65628 | 37 ft | 12 kts | 329° |
| 2026-04-22 08:10 | -6.11724 | 106.65593 | 38 ft | 13 kts | 338° |
| 2026-04-22 08:10 | -6.11631 | 106.65573 | 36 ft | 14 kts | 14° |
| 2026-04-22 08:10 | -6.11580 | 106.65654 | 37 ft | 14 kts | 70° |
| 2026-04-22 08:10 | -6.11546 | 106.65740 | 37 ft | 13 kts | 68° |
| 2026-04-22 08:11 | -6.11515 | 106.65816 | 37 ft | 11 kts | 68° |
| 2026-04-22 08:11 | -6.11489 | 106.65880 | 37 ft | 9 kts | 68° |
| 2026-04-22 08:11 | -6.11469 | 106.65930 | 37 ft | 7 kts | 68° |
| 2026-04-22 08:11 | -6.11454 | 106.65968 | 37 ft | 5 kts | 68° |
| 2026-04-22 08:12 | -6.11443 | 106.65994 | 37 ft | 4 kts | 68° |
| 2026-04-22 08:12 | -6.11428 | 106.66031 | 38 ft | 7 kts | 68° |
| 2026-04-22 08:12 | -6.11405 | 106.66089 | 38 ft | 11 kts | 69° |
| 2026-04-22 08:12 | -6.11375 | 106.66169 | 38 ft | 14 kts | 69° |
| 2026-04-22 08:13 | -6.11337 | 106.66273 | 36 ft | 17 kts | 69° |
| 2026-04-22 08:13 | -6.11289 | 106.66396 | 38 ft | 21 kts | 68° |
| 2026-04-22 08:13 | -6.11230 | 106.66538 | 38 ft | 23 kts | 67° |
| 2026-04-22 08:13 | -6.11166 | 106.66686 | 38 ft | 21 kts | 66° |
| 2026-04-22 08:14 | -6.11114 | 106.66819 | 38 ft | 20 kts | 69° |
| 2026-04-22 08:14 | -6.11068 | 106.66935 | 37 ft | 17 kts | 65° |
| 2026-04-22 08:14 | -6.10968 | 106.66960 | 37 ft | 16 kts | 316° |
| 2026-04-22 08:14 | -6.10910 | 106.66865 | 36 ft | 16 kts | 279° |
| 2026-04-22 08:15 | -6.10926 | 106.66811 | 35 ft | 0 kts | 245° |
| 2026-04-22 08:18 | -6.10979 | 106.66691 | 36 ft | 51 kts | 247° |
| 2026-04-22 08:18 | -6.11192 | 106.66142 | 37 ft | 114 kts | 248° |
| 2026-04-22 08:18 | -6.11549 | 106.65242 | 39 ft | 162 kts | 248° |
| 2026-04-22 08:18 | -6.11957 | 106.64080 | 288 ft | 183 kts | 255° |
| 2026-04-22 08:19 | -6.12398 | 106.62854 | 817 ft | 188 kts | 250° |
| 2026-04-22 08:19 | -6.12721 | 106.61600 | 1497 ft | 186 kts | 279° |
| 2026-04-22 08:19 | -6.12375 | 106.60347 | 2003 ft | 192 kts | 290° |
| 2026-04-22 08:19 | -6.11879 | 106.59021 | 2195 ft | 214 kts | 291° |
| 2026-04-22 08:20 | -6.11313 | 106.57540 | 2430 ft | 239 kts | 290° |
| 2026-04-22 08:20 | -6.10695 | 106.55903 | 2770 ft | 261 kts | 290° |
| 2026-04-22 08:20 | -6.10049 | 106.54166 | 3405 ft | 268 kts | 290° |
| 2026-04-22 08:20 | -6.09378 | 106.52402 | 4155 ft | 272 kts | 295° |
| 2026-04-22 08:21 | -6.08202 | 106.50910 | 4891 ft | 277 kts | 323° |
| 2026-04-22 08:21 | -6.06443 | 106.50126 | 5625 ft | 281 kts | 349° |
| 2026-04-22 08:21 | -6.04492 | 106.50193 | 6350 ft | 284 kts | 17° |
| 2026-04-22 08:21 | -6.02724 | 106.51075 | 7059 ft | 287 kts | 37° |
| 2026-04-22 08:22 | -6.01347 | 106.52527 | 7761 ft | 290 kts | 56° |
| 2026-04-22 08:22 | -6.00494 | 106.54366 | 8461 ft | 294 kts | 74° |
| 2026-04-22 08:22 | -6.00154 | 106.56401 | 9135 ft | 298 kts | 81° |
| 2026-04-22 08:22 | -5.99873 | 106.58479 | 9790 ft | 302 kts | 81° |
| 2026-04-22 08:23 | -5.99577 | 106.60614 | 10112 ft | 319 kts | 81° |
| 2026-04-22 08:23 | -5.99256 | 106.62894 | 10235 ft | 341 kts | 81° |
| 2026-04-22 08:23 | -5.98913 | 106.65321 | 10423 ft | 359 kts | 81° |
| 2026-04-22 08:23 | -5.98559 | 106.67822 | 10911 ft | 364 kts | 81° |
| 2026-04-22 08:24 | -5.98202 | 106.70357 | 11463 ft | 368 kts | 81° |
| 2026-04-22 08:24 | -5.97844 | 106.72915 | 12034 ft | 371 kts | 81° |
| 2026-04-22 08:24 | -5.97485 | 106.75492 | 12617 ft | 374 kts | 81° |
| 2026-04-22 08:24 | -5.97121 | 106.78086 | 13180 ft | 377 kts | 81° |
| 2026-04-22 08:25 | -5.96753 | 106.80699 | 13731 ft | 379 kts | 81° |
| 2026-04-22 08:25 | -5.96379 | 106.83328 | 14210 ft | 382 kts | 79° |
| 2026-04-22 08:25 | -5.95802 | 106.85902 | 14683 ft | 384 kts | 76° |
| 2026-04-22 08:25 | -5.95164 | 106.88520 | 15157 ft | 387 kts | 76° |
| 2026-04-22 08:26 | -5.94526 | 106.91155 | 15635 ft | 390 kts | 75° |
| 2026-04-22 08:26 | -5.93881 | 106.93815 | 16108 ft | 393 kts | 75° |
| 2026-04-22 08:26 | -5.93025 | 106.96418 | 16552 ft | 395 kts | 64° |
| 2026-04-22 08:26 | -5.91608 | 106.98785 | 16993 ft | 397 kts | 51° |
| 2026-04-22 08:27 | -5.89692 | 107.00781 | 17426 ft | 399 kts | 38° |
| 2026-04-22 08:27 | -5.87366 | 107.02301 | 17842 ft | 401 kts | 25° |
| 2026-04-22 08:27 | -5.84775 | 107.03346 | 18241 ft | 403 kts | 19° |
| 2026-04-22 08:27 | -5.82134 | 107.04325 | 18609 ft | 405 kts | 20° |
| 2026-04-22 08:28 | -5.79488 | 107.05303 | 19003 ft | 407 kts | 20° |
| 2026-04-22 08:28 | -5.76823 | 107.06291 | 19367 ft | 409 kts | 20° |
| 2026-04-22 08:28 | -5.74143 | 107.07288 | 19734 ft | 412 kts | 20° |
| 2026-04-22 08:28 | -5.71481 | 107.08358 | 20078 ft | 414 kts | 27° |
| 2026-04-22 08:29 | -5.69034 | 107.09893 | 20424 ft | 416 kts | 38° |
| 2026-04-22 08:29 | -5.66950 | 107.11907 | 20759 ft | 418 kts | 51° |
| 2026-04-22 08:29 | -5.65324 | 107.14329 | 21098 ft | 420 kts | 63° |
| 2026-04-22 08:29 | -5.64213 | 107.17042 | 21426 ft | 422 kts | 71° |
| 2026-04-22 08:30 | -5.63273 | 107.19845 | 21769 ft | 424 kts | 71° |
| 2026-04-22 08:30 | -5.62325 | 107.22657 | 22103 ft | 426 kts | 71° |
| 2026-04-22 08:30 | -5.61368 | 107.25479 | 22444 ft | 428 kts | 71° |
| 2026-04-22 08:30 | -5.60407 | 107.28311 | 22759 ft | 430 kts | 71° |
| 2026-04-22 08:31 | -5.59440 | 107.31160 | 23083 ft | 432 kts | 71° |
| 2026-04-22 08:31 | -5.58469 | 107.34026 | 23381 ft | 435 kts | 71° |
| 2026-04-22 08:31 | -5.56519 | 107.39790 | 23904 ft | 438 kts | 71° |
| 2026-04-22 08:32 | -5.55538 | 107.42695 | 24181 ft | 439 kts | 71° |
| 2026-04-22 08:32 | -5.54555 | 107.45601 | 24444 ft | 441 kts | 71° |
| 2026-04-22 08:32 | -5.53566 | 107.48519 | 24706 ft | 442 kts | 71° |
| 2026-04-22 08:32 | -5.52576 | 107.51442 | 24956 ft | 444 kts | 71° |
| 2026-04-22 08:33 | -5.51585 | 107.54379 | 25205 ft | 445 kts | 71° |
| 2026-04-22 08:33 | -5.50593 | 107.57321 | 25441 ft | 447 kts | 71° |
| 2026-04-22 08:33 | -5.49593 | 107.60285 | 25690 ft | 448 kts | 71° |
| 2026-04-22 08:33 | -5.48588 | 107.63246 | 25935 ft | 450 kts | 71° |
| 2026-04-22 08:34 | -5.47575 | 107.66218 | 26177 ft | 451 kts | 71° |
| 2026-04-22 08:34 | -5.46557 | 107.69205 | 26410 ft | 453 kts | 71° |
| 2026-04-22 08:34 | -5.45537 | 107.72202 | 26656 ft | 454 kts | 71° |
| 2026-04-22 08:34 | -5.44518 | 107.75208 | 26902 ft | 456 kts | 71° |
| 2026-04-22 08:35 | -5.43391 | 107.78181 | 27117 ft | 457 kts | 65° |
| 2026-04-22 08:35 | -5.41830 | 107.80957 | 27357 ft | 459 kts | 56° |
| 2026-04-22 08:35 | -5.39994 | 107.83582 | 27584 ft | 460 kts | 55° |
| 2026-04-22 08:35 | -5.38150 | 107.86208 | 27800 ft | 461 kts | 55° |
| 2026-04-22 08:36 | -5.36295 | 107.88845 | 28024 ft | 463 kts | 55° |
| 2026-04-22 08:36 | -5.34439 | 107.91486 | 28232 ft | 464 kts | 55° |
| 2026-04-22 08:36 | -5.32578 | 107.94140 | 28432 ft | 465 kts | 55° |
| 2026-04-22 08:36 | -5.30720 | 107.96796 | 28649 ft | 467 kts | 55° |
| 2026-04-22 08:37 | -5.28850 | 107.99468 | 28837 ft | 468 kts | 55° |
| 2026-04-22 08:37 | -5.27613 | 108.01235 | 28973 ft | 469 kts | 55° |
| 2026-04-22 08:37 | -5.25733 | 108.03910 | 29176 ft | 470 kts | 55° |
| 2026-04-22 08:37 | -5.23845 | 108.06596 | 29374 ft | 471 kts | 55° |
| 2026-04-22 08:38 | -5.21318 | 108.10193 | 29699 ft | 471 kts | 55° |
| 2026-04-22 08:38 | -5.20069 | 108.11975 | 29891 ft | 471 kts | 55° |
| 2026-04-22 08:38 | -5.18187 | 108.14659 | 30135 ft | 470 kts | 55° |
| 2026-04-22 08:38 | -5.15699 | 108.18207 | 30448 ft | 469 kts | 55° |
| 2026-04-22 08:39 | -5.14431 | 108.20017 | 30590 ft | 469 kts | 55° |
| 2026-04-22 08:39 | -5.12558 | 108.22690 | 30818 ft | 469 kts | 55° |
| 2026-04-22 08:39 | -5.10684 | 108.25360 | 31047 ft | 468 kts | 55° |
| 2026-04-22 08:39 | -5.08200 | 108.28893 | 31350 ft | 468 kts | 55° |
| 2026-04-22 08:40 | -5.06929 | 108.30698 | 31506 ft | 468 kts | 55° |
| 2026-04-22 08:40 | -5.05056 | 108.33360 | 31786 ft | 466 kts | 55° |
| 2026-04-22 08:40 | -5.03197 | 108.36002 | 32141 ft | 462 kts | 55° |
| 2026-04-22 08:40 | -5.01350 | 108.38628 | 32456 ft | 460 kts | 55° |
| 2026-04-22 08:41 | -4.99513 | 108.41247 | 32741 ft | 458 kts | 55° |
| 2026-04-22 08:41 | -4.97687 | 108.43855 | 33012 ft | 457 kts | 54° |
| 2026-04-22 08:41 | -4.95858 | 108.46463 | 33246 ft | 457 kts | 54° |
| 2026-04-22 08:41 | -4.94032 | 108.49063 | 33494 ft | 456 kts | 54° |
| 2026-04-22 08:42 | -4.92207 | 108.51663 | 33762 ft | 455 kts | 54° |
| 2026-04-22 08:42 | -4.90383 | 108.54258 | 33983 ft | 455 kts | 54° |
| 2026-04-22 08:42 | -4.88562 | 108.56844 | 34191 ft | 454 kts | 54° |
| 2026-04-22 08:42 | -4.86739 | 108.59431 | 34399 ft | 454 kts | 54° |
| 2026-04-22 08:43 | -4.84921 | 108.62009 | 34598 ft | 453 kts | 54° |
| 2026-04-22 08:43 | -4.83105 | 108.64590 | 34764 ft | 453 kts | 54° |
| 2026-04-22 08:43 | -4.81290 | 108.67174 | 34822 ft | 453 kts | 54° |
| 2026-04-22 08:44 | -4.77665 | 108.72344 | 34831 ft | 453 kts | 54° |
| 2026-04-22 08:44 | -4.74040 | 108.77508 | 34831 ft | 453 kts | 54° |
| 2026-04-22 08:45 | -4.70607 | 108.82800 | 34828 ft | 453 kts | 64° |
| 2026-04-22 08:45 | -4.67889 | 108.88505 | 34829 ft | 454 kts | 64° |
| 2026-04-22 08:46 | -4.65184 | 108.94228 | 34829 ft | 455 kts | 64° |
| 2026-04-22 08:46 | -4.62474 | 108.99957 | 34827 ft | 455 kts | 64° |
| 2026-04-22 08:47 | -4.59757 | 109.05639 | 34824 ft | 455 kts | 64° |
| 2026-04-22 08:47 | -4.57025 | 109.11365 | 34826 ft | 456 kts | 64° |
| 2026-04-22 08:48 | -4.54294 | 109.17101 | 34827 ft | 456 kts | 64° |
| 2026-04-22 08:48 | -4.51564 | 109.22836 | 34828 ft | 456 kts | 64° |
| 2026-04-22 08:49 | -4.48833 | 109.28575 | 34827 ft | 456 kts | 64° |
| 2026-04-22 08:49 | -4.46098 | 109.34316 | 34828 ft | 456 kts | 64° |
| 2026-04-22 08:50 | -4.43364 | 109.40055 | 34827 ft | 456 kts | 64° |
| 2026-04-22 08:50 | -4.40636 | 109.45790 | 34827 ft | 456 kts | 64° |
| 2026-04-22 08:51 | -4.37904 | 109.51532 | 34830 ft | 456 kts | 64° |
| 2026-04-22 08:51 | -4.35168 | 109.57260 | 34834 ft | 456 kts | 64° |
| 2026-04-22 08:52 | -4.32432 | 109.62988 | 34837 ft | 455 kts | 64° |
| 2026-04-22 08:52 | -4.29703 | 109.68708 | 34846 ft | 455 kts | 64° |
| 2026-04-22 08:53 | -4.26982 | 109.74421 | 34848 ft | 454 kts | 64° |
| 2026-04-22 08:53 | -4.24260 | 109.80123 | 34845 ft | 453 kts | 65° |
| 2026-04-22 08:54 | -4.21534 | 109.85819 | 34826 ft | 454 kts | 65° |
| 2026-04-22 08:54 | -4.18800 | 109.91534 | 34821 ft | 455 kts | 65° |
| 2026-04-22 08:55 | -4.16064 | 109.97258 | 34819 ft | 456 kts | 65° |
| 2026-04-22 08:55 | -4.13332 | 110.02990 | 34821 ft | 456 kts | 65° |
| 2026-04-22 08:56 | -4.10604 | 110.08733 | 34829 ft | 457 kts | 65° |
| 2026-04-22 08:56 | -4.07861 | 110.14471 | 34827 ft | 457 kts | 65° |
| 2026-04-22 08:57 | -4.05109 | 110.20213 | 34828 ft | 457 kts | 65° |
| 2026-04-22 08:57 | -4.02357 | 110.25954 | 34829 ft | 457 kts | 65° |
| 2026-04-22 08:58 | -3.99608 | 110.31702 | 34829 ft | 458 kts | 65° |
| 2026-04-22 08:58 | -3.96860 | 110.37453 | 34832 ft | 458 kts | 65° |
| 2026-04-22 08:59 | -3.94108 | 110.43199 | 34834 ft | 458 kts | 65° |
| 2026-04-22 08:59 | -3.91353 | 110.48949 | 34841 ft | 458 kts | 65° |
| 2026-04-22 09:00 | -3.88612 | 110.54698 | 34849 ft | 457 kts | 65° |
| 2026-04-22 09:00 | -3.85866 | 110.60434 | 34853 ft | 456 kts | 64° |
| 2026-04-22 09:01 | -3.83141 | 110.66118 | 34852 ft | 456 kts | 65° |
| 2026-04-22 09:01 | -3.80404 | 110.71832 | 34848 ft | 455 kts | 64° |
| 2026-04-22 09:02 | -3.77664 | 110.77550 | 34844 ft | 455 kts | 65° |
| 2026-04-22 09:02 | -3.74933 | 110.83256 | 34839 ft | 455 kts | 65° |
| 2026-04-22 09:03 | -3.72201 | 110.88965 | 34838 ft | 454 kts | 65° |
| 2026-04-22 09:03 | -3.69469 | 110.94663 | 34835 ft | 454 kts | 65° |
| 2026-04-22 09:04 | -3.66724 | 111.00363 | 34835 ft | 454 kts | 65° |
| 2026-04-22 09:04 | -3.63985 | 111.06059 | 34835 ft | 454 kts | 65° |
| 2026-04-22 09:05 | -3.61255 | 111.11759 | 34833 ft | 454 kts | 65° |
| 2026-04-22 09:05 | -3.58528 | 111.17462 | 34837 ft | 454 kts | 65° |
| 2026-04-22 09:06 | -3.55799 | 111.23151 | 34846 ft | 453 kts | 65° |
| 2026-04-22 09:06 | -3.53075 | 111.28835 | 34830 ft | 453 kts | 65° |
| 2026-04-22 09:07 | -3.50329 | 111.34572 | 34825 ft | 454 kts | 65° |
| 2026-04-22 09:07 | -3.47607 | 111.40233 | 34820 ft | 454 kts | 65° |
| 2026-04-22 09:08 | -3.44868 | 111.45928 | 34818 ft | 454 kts | 65° |
| 2026-04-22 09:08 | -3.42129 | 111.51634 | 34821 ft | 455 kts | 65° |
| 2026-04-22 09:09 | -3.39383 | 111.57334 | 34824 ft | 455 kts | 65° |
| 2026-04-22 09:09 | -3.36645 | 111.63037 | 34824 ft | 455 kts | 65° |
| 2026-04-22 09:10 | -3.33909 | 111.68747 | 34821 ft | 455 kts | 65° |
| 2026-04-22 09:10 | -3.31171 | 111.74450 | 34822 ft | 455 kts | 65° |
| 2026-04-22 09:11 | -3.28426 | 111.80149 | 34824 ft | 454 kts | 65° |
| 2026-04-22 09:11 | -3.25683 | 111.85846 | 34823 ft | 454 kts | 65° |
| 2026-04-22 09:12 | -3.22944 | 111.91538 | 34825 ft | 454 kts | 65° |
| 2026-04-22 09:12 | -3.20205 | 111.97227 | 34828 ft | 454 kts | 65° |
| 2026-04-22 09:13 | -3.17487 | 112.02879 | 34828 ft | 454 kts | 65° |
| 2026-04-22 09:13 | -3.14754 | 112.08571 | 34824 ft | 454 kts | 65° |
| 2026-04-22 09:14 | -3.12014 | 112.14267 | 34820 ft | 454 kts | 65° |
| 2026-04-22 09:14 | -3.09278 | 112.19964 | 34814 ft | 455 kts | 65° |
| 2026-04-22 09:15 | -3.06526 | 112.25672 | 34814 ft | 456 kts | 65° |
| 2026-04-22 09:15 | -3.03782 | 112.31392 | 34819 ft | 456 kts | 66° |
| 2026-04-22 09:16 | -3.01323 | 112.37246 | 34821 ft | 456 kts | 69° |
| 2026-04-22 09:16 | -2.99093 | 112.43194 | 34824 ft | 457 kts | 70° |
| 2026-04-22 09:17 | -2.96829 | 112.49137 | 34827 ft | 457 kts | 69° |
| 2026-04-22 09:17 | -2.94491 | 112.55056 | 34825 ft | 458 kts | 69° |
| 2026-04-22 09:18 | -2.92127 | 112.60964 | 34827 ft | 458 kts | 69° |
| 2026-04-22 09:18 | -2.89772 | 112.66887 | 34830 ft | 458 kts | 69° |
| 2026-04-22 09:19 | -2.87432 | 112.72817 | 34835 ft | 458 kts | 69° |
| 2026-04-22 09:19 | -2.85097 | 112.78743 | 34838 ft | 458 kts | 69° |
| 2026-04-22 09:20 | -2.82778 | 112.84630 | 34843 ft | 458 kts | 69° |
| 2026-04-22 09:20 | -2.80439 | 112.90547 | 34846 ft | 457 kts | 69° |
| 2026-04-22 09:21 | -2.78092 | 112.96464 | 34840 ft | 457 kts | 69° |
| 2026-04-22 09:21 | -2.75749 | 113.02376 | 34841 ft | 458 kts | 69° |
| 2026-04-22 09:22 | -2.73409 | 113.08300 | 34848 ft | 458 kts | 69° |
| 2026-04-22 09:22 | -2.71064 | 113.14219 | 34845 ft | 458 kts | 69° |
| 2026-04-22 09:23 | -2.68719 | 113.20143 | 34849 ft | 458 kts | 69° |
| 2026-04-22 09:23 | -2.66375 | 113.26068 | 34848 ft | 458 kts | 69° |
| 2026-04-22 09:24 | -2.64026 | 113.31995 | 34846 ft | 458 kts | 69° |
| 2026-04-22 09:24 | -2.61681 | 113.37915 | 34843 ft | 458 kts | 69° |
| 2026-04-22 09:25 | -2.58705 | 113.43525 | 34841 ft | 458 kts | 57° |
| 2026-04-22 09:25 | -2.55769 | 113.47976 | 34846 ft | 458 kts | 57° |
| 2026-04-22 09:26 | -2.52268 | 113.53301 | 34844 ft | 458 kts | 57° |
| 2026-04-22 09:26 | -2.48797 | 113.58584 | 34843 ft | 457 kts | 57° |
| 2026-04-22 09:27 | -2.45308 | 113.63897 | 34837 ft | 457 kts | 57° |
| 2026-04-22 09:27 | -2.41817 | 113.69208 | 34833 ft | 457 kts | 57° |
| 2026-04-22 09:28 | -2.38323 | 113.74522 | 34824 ft | 457 kts | 57° |
| 2026-04-22 09:28 | -2.34837 | 113.79830 | 34830 ft | 456 kts | 57° |
| 2026-04-22 09:29 | -2.31355 | 113.85135 | 34834 ft | 456 kts | 57° |
| 2026-04-22 09:29 | -2.27872 | 113.90426 | 34829 ft | 455 kts | 57° |
| 2026-04-22 09:30 | -2.24513 | 113.95781 | 34826 ft | 454 kts | 64° |
| 2026-04-22 09:30 | -2.21959 | 114.01551 | 34823 ft | 454 kts | 67° |
| 2026-04-22 09:31 | -2.19424 | 114.07336 | 34823 ft | 454 kts | 66° |
| 2026-04-22 09:31 | -2.16888 | 114.13117 | 34832 ft | 453 kts | 66° |
| 2026-04-22 09:32 | -2.14355 | 114.18880 | 34837 ft | 453 kts | 66° |
| 2026-04-22 09:32 | -2.11823 | 114.24648 | 34833 ft | 452 kts | 66° |
| 2026-04-22 09:33 | -2.09293 | 114.30402 | 34828 ft | 452 kts | 66° |
| 2026-04-22 09:33 | -2.06783 | 114.36115 | 34825 ft | 451 kts | 67° |
| 2026-04-22 09:34 | -2.04243 | 114.41905 | 34804 ft | 452 kts | 67° |
| 2026-04-22 09:34 | -2.01735 | 114.47624 | 34795 ft | 453 kts | 67° |
| 2026-04-22 09:35 | -1.97919 | 114.56289 | 34799 ft | 455 kts | 67° |
| 2026-04-22 09:35 | -1.95374 | 114.62076 | 34801 ft | 455 kts | 67° |
| 2026-04-22 09:36 | -1.92824 | 114.67874 | 34808 ft | 456 kts | 67° |
| 2026-04-22 09:36 | -1.90274 | 114.73679 | 34812 ft | 456 kts | 67° |
| 2026-04-22 09:37 | -1.87718 | 114.79480 | 34811 ft | 456 kts | 67° |
| 2026-04-22 09:37 | -1.85168 | 114.85288 | 34813 ft | 456 kts | 67° |
| 2026-04-22 09:38 | -1.82615 | 114.91101 | 34818 ft | 457 kts | 67° |
| 2026-04-22 09:38 | -1.80054 | 114.96912 | 34821 ft | 457 kts | 67° |
| 2026-04-22 09:39 | -1.77495 | 115.02726 | 34821 ft | 457 kts | 67° |
| 2026-04-22 09:39 | -1.74940 | 115.08536 | 34817 ft | 457 kts | 67° |
| 2026-04-22 09:40 | -1.72390 | 115.14349 | 34822 ft | 457 kts | 67° |
| 2026-04-22 09:40 | -1.69835 | 115.20154 | 34822 ft | 456 kts | 67° |
| 2026-04-22 09:41 | -1.67301 | 115.25973 | 34821 ft | 456 kts | 68° |
| 2026-04-22 09:41 | -1.64907 | 115.31840 | 34821 ft | 456 kts | 69° |
| 2026-04-22 09:42 | -1.62551 | 115.37716 | 34817 ft | 456 kts | 69° |
| 2026-04-22 09:42 | -1.60162 | 115.43587 | 34824 ft | 456 kts | 68° |
| 2026-04-22 09:43 | -1.57743 | 115.49450 | 34825 ft | 456 kts | 68° |
| 2026-04-22 09:43 | -1.55317 | 115.55314 | 34828 ft | 457 kts | 68° |
| 2026-04-22 09:44 | -1.52900 | 115.61184 | 34830 ft | 457 kts | 68° |
| 2026-04-22 09:44 | -1.50486 | 115.67056 | 34829 ft | 457 kts | 68° |
| 2026-04-22 09:45 | -1.48086 | 115.72932 | 34826 ft | 457 kts | 68° |
| 2026-04-22 09:45 | -1.45676 | 115.78812 | 34833 ft | 457 kts | 68° |
| 2026-04-22 09:46 | -1.43262 | 115.84693 | 34833 ft | 457 kts | 68° |
| 2026-04-22 09:46 | -1.40844 | 115.90576 | 34833 ft | 457 kts | 68° |
| 2026-04-22 09:47 | -1.38427 | 115.96459 | 34836 ft | 457 kts | 68° |
| 2026-04-22 09:47 | -1.36010 | 116.02327 | 34839 ft | 457 kts | 68° |
| 2026-04-22 09:48 | -1.33588 | 116.08198 | 34837 ft | 456 kts | 68° |
| 2026-04-22 09:48 | -1.31178 | 116.14064 | 34837 ft | 456 kts | 68° |
| 2026-04-22 09:49 | -1.28772 | 116.19926 | 34836 ft | 456 kts | 68° |
| 2026-04-22 09:49 | -1.26383 | 116.25757 | 34835 ft | 456 kts | 68° |
| 2026-04-22 09:50 | -1.23974 | 116.31619 | 34831 ft | 456 kts | 68° |
| 2026-04-22 09:50 | -1.21560 | 116.37482 | 34826 ft | 456 kts | 68° |
| 2026-04-22 09:51 | -1.19148 | 116.43352 | 34822 ft | 457 kts | 68° |
| 2026-04-22 09:51 | -1.16731 | 116.49226 | 34822 ft | 457 kts | 68° |
| 2026-04-22 09:52 | -1.14312 | 116.55094 | 34823 ft | 457 kts | 68° |
| 2026-04-22 09:52 | -1.11894 | 116.60966 | 34822 ft | 457 kts | 68° |
| 2026-04-22 09:53 | -1.09484 | 116.66843 | 34824 ft | 457 kts | 68° |
| 2026-04-22 09:53 | -1.07070 | 116.72724 | 34826 ft | 457 kts | 68° |
| 2026-04-22 09:54 | -1.04652 | 116.78603 | 34823 ft | 458 kts | 68° |
| 2026-04-22 09:54 | -1.02214 | 116.84523 | 34830 ft | 458 kts | 68° |
| 2026-04-22 09:55 | -0.99793 | 116.90402 | 34824 ft | 458 kts | 69° |
| 2026-04-22 09:55 | -0.97389 | 116.96256 | 34819 ft | 458 kts | 69° |
| 2026-04-22 09:56 | -0.94950 | 117.02186 | 34822 ft | 459 kts | 69° |
| 2026-04-22 09:56 | -0.92527 | 117.08081 | 34823 ft | 459 kts | 68° |
| 2026-04-22 09:57 | -0.90125 | 117.13942 | 34826 ft | 459 kts | 68° |
| 2026-04-22 09:57 | -0.87706 | 117.19845 | 34824 ft | 459 kts | 68° |
| 2026-04-22 09:58 | -0.85273 | 117.25738 | 34822 ft | 459 kts | 68° |
| 2026-04-22 09:58 | -0.82842 | 117.31636 | 34821 ft | 459 kts | 68° |
| 2026-04-22 09:59 | -0.80415 | 117.37542 | 34828 ft | 459 kts | 68° |
| 2026-04-22 09:59 | -0.77989 | 117.43447 | 34827 ft | 459 kts | 68° |
| 2026-04-22 10:00 | -0.75568 | 117.49353 | 34827 ft | 460 kts | 68° |
| 2026-04-22 10:00 | -0.73139 | 117.55282 | 34808 ft | 462 kts | 68° |
| 2026-04-22 10:01 | -0.70692 | 117.61224 | 34808 ft | 463 kts | 68° |
| 2026-04-22 10:01 | -0.68244 | 117.67181 | 34810 ft | 464 kts | 68° |
| 2026-04-22 10:02 | -0.65789 | 117.73153 | 34832 ft | 464 kts | 68° |
| 2026-04-22 10:02 | -0.63336 | 117.79112 | 34840 ft | 463 kts | 68° |
| 2026-04-22 10:03 | -0.60886 | 117.85066 | 34846 ft | 463 kts | 68° |
| 2026-04-22 10:03 | -0.58444 | 117.91012 | 34846 ft | 463 kts | 68° |
| 2026-04-22 10:04 | -0.56003 | 117.96964 | 34846 ft | 463 kts | 68° |
| 2026-04-22 10:04 | -0.53558 | 118.02903 | 34847 ft | 462 kts | 68° |
| 2026-04-22 10:05 | -0.51117 | 118.08849 | 34848 ft | 462 kts | 67° |
| 2026-04-22 10:05 | -0.48682 | 118.14786 | 34849 ft | 462 kts | 67° |
| 2026-04-22 10:06 | -0.46239 | 118.20716 | 34852 ft | 462 kts | 67° |
| 2026-04-22 10:06 | -0.43797 | 118.26647 | 34851 ft | 461 kts | 67° |
| 2026-04-22 10:07 | -0.41356 | 118.32582 | 34853 ft | 461 kts | 67° |
| 2026-04-22 10:07 | -0.38918 | 118.38501 | 34853 ft | 461 kts | 67° |
| 2026-04-22 10:08 | -0.36489 | 118.44414 | 34856 ft | 459 kts | 67° |
| 2026-04-22 10:08 | -0.34211 | 118.50328 | 34855 ft | 459 kts | 69° |
| 2026-04-22 10:09 | -0.32065 | 118.56331 | 34841 ft | 459 kts | 69° |
| 2026-04-22 10:09 | -0.29905 | 118.62342 | 34830 ft | 460 kts | 69° |
| 2026-04-22 10:10 | -0.27694 | 118.68351 | 34829 ft | 461 kts | 69° |
| 2026-04-22 10:10 | -0.25840 | 118.73346 | 34833 ft | 461 kts | 69° |
| 2026-04-22 10:11 | -0.23615 | 118.79358 | 34839 ft | 461 kts | 70° |
| 2026-04-22 10:11 | -0.21405 | 118.85372 | 34840 ft | 461 kts | 69° |
| 2026-04-22 10:12 | -0.19172 | 118.91432 | 34840 ft | 461 kts | 69° |
| 2026-04-22 10:12 | -0.16961 | 118.97437 | 34842 ft | 461 kts | 70° |
| 2026-04-22 10:13 | -0.14746 | 119.03439 | 34856 ft | 460 kts | 70° |
| 2026-04-22 10:13 | -0.12549 | 119.09391 | 34857 ft | 459 kts | 70° |
| 2026-04-22 10:14 | -0.10344 | 119.15377 | 34860 ft | 459 kts | 70° |
| 2026-04-22 10:14 | -0.08140 | 119.21361 | 34859 ft | 459 kts | 70° |
| 2026-04-22 10:15 | -0.05944 | 119.27332 | 34858 ft | 458 kts | 70° |
| 2026-04-22 10:15 | -0.03741 | 119.33308 | 34859 ft | 458 kts | 70° |
| 2026-04-22 10:16 | -0.01545 | 119.39271 | 34857 ft | 457 kts | 70° |
| 2026-04-22 10:16 | 0.00657 | 119.45220 | 34858 ft | 457 kts | 70° |
| 2026-04-22 10:17 | 0.02853 | 119.51175 | 34847 ft | 456 kts | 71° |
| 2026-04-22 10:17 | 0.04712 | 119.57235 | 34837 ft | 457 kts | 76° |
| 2026-04-22 10:18 | 0.06277 | 119.63385 | 34841 ft | 457 kts | 76° |
| 2026-04-22 10:18 | 0.07863 | 119.69551 | 34842 ft | 458 kts | 76° |
| 2026-04-22 10:19 | 0.09540 | 119.75694 | 34847 ft | 458 kts | 75° |
| 2026-04-22 10:19 | 0.11241 | 119.81825 | 34848 ft | 458 kts | 75° |
| 2026-04-22 10:20 | 0.12944 | 119.87967 | 34863 ft | 458 kts | 75° |
| 2026-04-22 10:20 | 0.14634 | 119.94102 | 34868 ft | 458 kts | 75° |
| 2026-04-22 10:21 | 0.16316 | 120.00238 | 34876 ft | 458 kts | 75° |
| 2026-04-22 10:21 | 0.17990 | 120.06366 | 34876 ft | 457 kts | 75° |
| 2026-04-22 10:22 | 0.19676 | 120.12498 | 34874 ft | 457 kts | 75° |
| 2026-04-22 10:22 | 0.21359 | 120.18613 | 34877 ft | 456 kts | 75° |
| 2026-04-22 10:23 | 0.23024 | 120.24724 | 34876 ft | 455 kts | 75° |
| 2026-04-22 10:23 | 0.24699 | 120.30820 | 34871 ft | 455 kts | 75° |
| 2026-04-22 10:24 | 0.26377 | 120.36905 | 34877 ft | 454 kts | 75° |
| 2026-04-22 10:24 | 0.28049 | 120.42989 | 34870 ft | 454 kts | 75° |
| 2026-04-22 10:25 | 0.29718 | 120.49069 | 34868 ft | 453 kts | 75° |
| 2026-04-22 10:25 | 0.31380 | 120.55140 | 34859 ft | 453 kts | 75° |
| 2026-04-22 10:26 | 0.33045 | 120.61210 | 34856 ft | 453 kts | 75° |
| 2026-04-22 10:26 | 0.34716 | 120.67276 | 34851 ft | 453 kts | 75° |
| 2026-04-22 10:27 | 0.36379 | 120.73343 | 34851 ft | 453 kts | 75° |
| 2026-04-22 10:27 | 0.38039 | 120.79415 | 34850 ft | 453 kts | 75° |
| 2026-04-22 10:28 | 0.39706 | 120.85490 | 34863 ft | 453 kts | 75° |
| 2026-04-22 10:28 | 0.41376 | 120.91566 | 34865 ft | 454 kts | 75° |
| 2026-04-22 10:29 | 0.43043 | 120.97643 | 34872 ft | 454 kts | 75° |
| 2026-04-22 10:29 | 0.44717 | 121.03727 | 34867 ft | 454 kts | 75° |
| 2026-04-22 10:30 | 0.46372 | 121.09776 | 34870 ft | 455 kts | 75° |
| 2026-04-22 10:30 | 0.48041 | 121.15873 | 34874 ft | 455 kts | 75° |
| 2026-04-22 10:31 | 0.49717 | 121.21974 | 34878 ft | 455 kts | 75° |
| 2026-04-22 10:31 | 0.51392 | 121.28071 | 34877 ft | 455 kts | 75° |
| 2026-04-22 10:32 | 0.53066 | 121.34164 | 34892 ft | 455 kts | 75° |
| 2026-04-22 10:32 | 0.54742 | 121.40260 | 34891 ft | 455 kts | 75° |
| 2026-04-22 10:33 | 0.56412 | 121.46348 | 34886 ft | 454 kts | 75° |
| 2026-04-22 10:33 | 0.58072 | 121.52432 | 34880 ft | 454 kts | 75° |
| 2026-04-22 10:34 | 0.59739 | 121.58515 | 34876 ft | 454 kts | 75° |
| 2026-04-22 10:34 | 0.61415 | 121.64598 | 34871 ft | 454 kts | 75° |
| 2026-04-22 10:35 | 0.63083 | 121.70676 | 34874 ft | 454 kts | 75° |
| 2026-04-22 10:35 | 0.64748 | 121.76762 | 34875 ft | 454 kts | 75° |
| 2026-04-22 10:36 | 0.66419 | 121.82850 | 34883 ft | 454 kts | 75° |
| 2026-04-22 10:36 | 0.68082 | 121.88941 | 34886 ft | 455 kts | 75° |
| 2026-04-22 10:37 | 0.70590 | 121.98079 | 34879 ft | 455 kts | 75° |
| 2026-04-22 10:38 | 0.72259 | 122.04170 | 34881 ft | 455 kts | 75° |
| 2026-04-22 10:38 | 0.73938 | 122.10264 | 34880 ft | 455 kts | 75° |
| 2026-04-22 10:39 | 0.75612 | 122.16350 | 34881 ft | 454 kts | 75° |
| 2026-04-22 10:39 | 0.77279 | 122.22436 | 34880 ft | 454 kts | 75° |
| 2026-04-22 10:40 | 0.78926 | 122.28479 | 34882 ft | 454 kts | 75° |
| 2026-04-22 10:40 | 0.80590 | 122.34566 | 34878 ft | 454 kts | 75° |
| 2026-04-22 10:41 | 0.82261 | 122.40646 | 34877 ft | 454 kts | 75° |
| 2026-04-22 10:41 | 0.83940 | 122.46769 | 34881 ft | 454 kts | 75° |
| 2026-04-22 10:42 | 0.85598 | 122.52810 | 34879 ft | 454 kts | 75° |
| 2026-04-22 10:42 | 0.87259 | 122.58891 | 34878 ft | 453 kts | 75° |
| 2026-04-22 10:43 | 0.88922 | 122.64967 | 34878 ft | 453 kts | 75° |
| 2026-04-22 10:43 | 0.90592 | 122.71033 | 34873 ft | 453 kts | 75° |
| 2026-04-22 10:44 | 0.92258 | 122.77096 | 34874 ft | 453 kts | 75° |
| 2026-04-22 10:44 | 0.93923 | 122.83165 | 34875 ft | 453 kts | 75° |
| 2026-04-22 10:45 | 0.95582 | 122.89228 | 34877 ft | 453 kts | 75° |
| 2026-04-22 10:45 | 0.97238 | 122.95295 | 34871 ft | 453 kts | 75° |
| 2026-04-22 10:46 | 0.98907 | 123.01364 | 34869 ft | 453 kts | 75° |
| 2026-04-22 10:46 | 1.00576 | 123.07441 | 34878 ft | 453 kts | 75° |
| 2026-04-22 10:47 | 1.02239 | 123.13515 | 34879 ft | 453 kts | 75° |
| 2026-04-22 10:47 | 1.03906 | 123.19588 | 34873 ft | 453 kts | 75° |
| 2026-04-22 10:48 | 1.05564 | 123.25670 | 34873 ft | 453 kts | 77° |
| 2026-04-22 10:48 | 1.06410 | 123.31889 | 34873 ft | 453 kts | 84° |
| 2026-04-22 10:49 | 1.07045 | 123.38150 | 34874 ft | 453 kts | 84° |
| 2026-04-22 10:49 | 1.07683 | 123.44408 | 34875 ft | 453 kts | 84° |
| 2026-04-22 10:50 | 1.08312 | 123.50623 | 34876 ft | 453 kts | 84° |
| 2026-04-22 10:50 | 1.08947 | 123.56889 | 34876 ft | 453 kts | 84° |
| 2026-04-22 10:51 | 1.09554 | 123.63140 | 34372 ft | 450 kts | 85° |
| 2026-04-22 10:51 | 1.09829 | 123.66278 | 32712 ft | 459 kts | 85° |
| 2026-04-22 10:51 | 1.10097 | 123.69490 | 31007 ft | 468 kts | 85° |
| 2026-04-22 10:51 | 1.10363 | 123.72742 | 29675 ft | 468 kts | 85° |
| 2026-04-22 10:52 | 1.10629 | 123.75971 | 28342 ft | 463 kts | 85° |
| 2026-04-22 10:52 | 1.10898 | 123.79144 | 27168 ft | 455 kts | 85° |
| 2026-04-22 10:52 | 1.11168 | 123.82261 | 26064 ft | 446 kts | 85° |
| 2026-04-22 10:52 | 1.11436 | 123.85323 | 25074 ft | 437 kts | 85° |
| 2026-04-22 10:53 | 1.11693 | 123.88286 | 24504 ft | 419 kts | 85° |
| 2026-04-22 10:53 | 1.11938 | 123.91122 | 23966 ft | 402 kts | 85° |
| 2026-04-22 10:53 | 1.12176 | 123.93851 | 23436 ft | 386 kts | 85° |
| 2026-04-22 10:53 | 1.12405 | 123.96474 | 22896 ft | 371 kts | 85° |
| 2026-04-22 10:54 | 1.12627 | 123.99028 | 22435 ft | 369 kts | 85° |
| 2026-04-22 10:54 | 1.12848 | 124.01577 | 22007 ft | 368 kts | 85° |
| 2026-04-22 10:54 | 1.13069 | 124.04119 | 21561 ft | 366 kts | 85° |
| 2026-04-22 10:54 | 1.13286 | 124.06644 | 21135 ft | 364 kts | 85° |
| 2026-04-22 10:55 | 1.13503 | 124.09147 | 20708 ft | 361 kts | 85° |
| 2026-04-22 10:55 | 1.13718 | 124.11645 | 20287 ft | 359 kts | 85° |
| 2026-04-22 10:55 | 1.13935 | 124.14140 | 19840 ft | 360 kts | 84° |
| 2026-04-22 10:55 | 1.14081 | 124.15818 | 19537 ft | 358 kts | 84° |
| 2026-04-22 10:56 | 1.14292 | 124.18260 | 19100 ft | 357 kts | 84° |
| 2026-04-22 10:56 | 1.14610 | 124.21556 | 18498 ft | 356 kts | 80° |
| 2026-04-22 10:56 | 1.14948 | 124.23193 | 18186 ft | 356 kts | 76° |
| 2026-04-22 10:56 | 1.15511 | 124.25598 | 17667 ft | 355 kts | 76° |
| 2026-04-22 10:57 | 1.16076 | 124.27994 | 17192 ft | 354 kts | 76° |
| 2026-04-22 10:57 | 1.16640 | 124.30379 | 16718 ft | 352 kts | 76° |
| 2026-04-22 10:57 | 1.17202 | 124.32759 | 16251 ft | 351 kts | 76° |
| 2026-04-22 10:57 | 1.17759 | 124.35126 | 15785 ft | 350 kts | 76° |
| 2026-04-22 10:58 | 1.18308 | 124.37459 | 15320 ft | 349 kts | 76° |
| 2026-04-22 10:58 | 1.18864 | 124.39817 | 14849 ft | 348 kts | 76° |
| 2026-04-22 10:58 | 1.19426 | 124.42201 | 14373 ft | 347 kts | 76° |
| 2026-04-22 10:58 | 1.19969 | 124.44519 | 13875 ft | 343 kts | 77° |
| 2026-04-22 10:59 | 1.20507 | 124.46821 | 13215 ft | 345 kts | 77° |
| 2026-04-22 10:59 | 1.21058 | 124.49149 | 12542 ft | 343 kts | 76° |
| 2026-04-22 10:59 | 1.21617 | 124.51460 | 11888 ft | 340 kts | 76° |
| 2026-04-22 10:59 | 1.22156 | 124.53750 | 11243 ft | 337 kts | 77° |
| 2026-04-22 11:00 | 1.22666 | 124.56023 | 10621 ft | 334 kts | 78° |
| 2026-04-22 11:00 | 1.23150 | 124.58278 | 10345 ft | 332 kts | 78° |
| 2026-04-22 11:00 | 1.23624 | 124.60539 | 10118 ft | 333 kts | 78° |
| 2026-04-22 11:00 | 1.24088 | 124.62767 | 9921 ft | 319 kts | 78° |
| 2026-04-22 11:01 | 1.24523 | 124.64848 | 9806 ft | 295 kts | 78° |
| 2026-04-22 11:01 | 1.24936 | 124.66825 | 9681 ft | 288 kts | 78° |
| 2026-04-22 11:01 | 1.25342 | 124.68773 | 9546 ft | 286 kts | 78° |
| 2026-04-22 11:01 | 1.25746 | 124.70712 | 9430 ft | 285 kts | 78° |
| 2026-04-22 11:02 | 1.26149 | 124.72652 | 9255 ft | 286 kts | 78° |
| 2026-04-22 11:02 | 1.26540 | 124.74601 | 8602 ft | 285 kts | 82° |
| 2026-04-22 11:02 | 1.26632 | 124.76546 | 8111 ft | 278 kts | 89° |
| 2026-04-22 11:02 | 1.26655 | 124.78472 | 7554 ft | 275 kts | 89° |
| 2026-04-22 11:03 | 1.26688 | 124.80363 | 7015 ft | 270 kts | 89° |
| 2026-04-22 11:03 | 1.26722 | 124.82221 | 6481 ft | 265 kts | 89° |
| 2026-04-22 11:03 | 1.26757 | 124.84046 | 5927 ft | 261 kts | 89° |
| 2026-04-22 11:03 | 1.26789 | 124.85837 | 5551 ft | 254 kts | 89° |
| 2026-04-22 11:04 | 1.26819 | 124.87564 | 5414 ft | 244 kts | 89° |
| 2026-04-22 11:04 | 1.27023 | 124.89211 | 5279 ft | 235 kts | 71° |
| 2026-04-22 11:04 | 1.27829 | 124.90590 | 5166 ft | 228 kts | 48° |
| 2026-04-22 11:04 | 1.29073 | 124.91493 | 5066 ft | 222 kts | 25° |
| 2026-04-22 11:05 | 1.30545 | 124.91827 | 5006 ft | 215 kts | 4° |
| 2026-04-22 11:05 | 1.32034 | 124.91875 | 4810 ft | 214 kts | 4° |
| 2026-04-22 11:05 | 1.33527 | 124.91925 | 4532 ft | 216 kts | 4° |
| 2026-04-22 11:05 | 1.35044 | 124.91975 | 4221 ft | 220 kts | 3° |
| 2026-04-22 11:06 | 1.36585 | 124.92026 | 3910 ft | 220 kts | 4° |
| 2026-04-22 11:06 | 1.38085 | 124.92075 | 3609 ft | 212 kts | 5° |
| 2026-04-22 11:06 | 1.39520 | 124.92122 | 3322 ft | 206 kts | 4° |
| 2026-04-22 11:06 | 1.40951 | 124.92170 | 3073 ft | 198 kts | 4° |
| 2026-04-22 11:07 | 1.42294 | 124.92214 | 2776 ft | 189 kts | 5° |
| 2026-04-22 11:07 | 1.43560 | 124.92256 | 2523 ft | 180 kts | 4° |
| 2026-04-22 11:07 | 1.44753 | 124.92295 | 2297 ft | 163 kts | 5° |
| 2026-04-22 11:07 | 1.45846 | 124.92332 | 2058 ft | 152 kts | 3° |
| 2026-04-22 11:08 | 1.46881 | 124.92367 | 1848 ft | 147 kts | 3° |
| 2026-04-22 11:08 | 1.47896 | 124.92401 | 1641 ft | 145 kts | 2° |
| 2026-04-22 11:08 | 1.48913 | 124.92435 | 1432 ft | 144 kts | 2° |
| 2026-04-22 11:08 | 1.49900 | 124.92468 | 1219 ft | 144 kts | 2° |
| 2026-04-22 11:09 | 1.50892 | 124.92499 | 1025 ft | 142 kts | 4° |
| 2026-04-22 11:09 | 1.51873 | 124.92542 | 805 ft | 141 kts | 4° |
| 2026-04-22 11:09 | 1.52860 | 124.92567 | 559 ft | 141 kts | 1° |
| 2026-04-22 11:09 | 1.53836 | 124.92587 | 371 ft | 139 kts | 4° |
| 2026-04-22 11:10 | 1.54730 | 124.92637 | 338 ft | 113 kts | 1° |
| 2026-04-22 11:10 | 1.55254 | 124.92642 | 337 ft | 52 kts | 2° |
| 2026-04-22 11:10 | 1.55581 | 124.92653 | 335 ft | 36 kts | 2° |
| 2026-04-22 11:10 | 1.55667 | 124.92596 | 336 ft | 13 kts | 274° |
| 2026-04-22 11:11 | 1.55655 | 124.92510 | 333 ft | 12 kts | 236° |
| 2026-04-22 11:11 | 1.55578 | 124.92487 | 336 ft | 12 kts | 188° |
| 2026-04-22 11:11 | 1.55496 | 124.92486 | 336 ft | 12 kts | 180° |
| 2026-04-22 11:11 | 1.55411 | 124.92484 | 333 ft | 12 kts | 182° |
| 2026-04-22 11:12 | 1.55325 | 124.92481 | 335 ft | 13 kts | 182° |
| 2026-04-22 11:12 | 1.55237 | 124.92477 | 336 ft | 13 kts | 182° |
| 2026-04-22 11:12 | 1.55149 | 124.92474 | 336 ft | 13 kts | 182° |
| 2026-04-22 11:12 | 1.55059 | 124.92471 | 336 ft | 13 kts | 182° |
| 2026-04-22 11:13 | 1.54968 | 124.92468 | 336 ft | 13 kts | 182° |
| 2026-04-22 11:13 | 1.54876 | 124.92465 | 335 ft | 13 kts | 181° |
| 2026-04-22 11:13 | 1.54784 | 124.92463 | 336 ft | 13 kts | 181° |
| 2026-04-22 11:13 | 1.54690 | 124.92460 | 336 ft | 15 kts | 181° |
| 2026-04-22 11:14 | 1.54565 | 124.92457 | 335 ft | 20 kts | 181° |
| 2026-04-22 11:14 | 1.54415 | 124.92444 | 336 ft | 23 kts | 203° |
| 2026-04-22 11:14 | 1.54291 | 124.92418 | 334 ft | 6 kts | 181° |
| 2026-04-22 11:14 | 1.54280 | 124.92418 | 335 ft | 5 kts | 181° |
| 2026-04-22 11:15 | 1.54232 | 124.92417 | 336 ft | 7 kts | 181° |
| 2026-04-22 11:15 | 1.54189 | 124.92396 | 335 ft | 6 kts | 248° |
| 2026-04-22 11:15 | 1.54193 | 124.92352 | 336 ft | 4 kts | 273° |
| 2026-04-22 11:15 | 1.54194 | 124.92343 | 336 ft | 0 kts | 272° |
| 2026-04-22 11:16 | 1.54194 | 124.92342 | 336 ft | 0 kts | 272° |